Time;durP1;ratioP1;P1;durP2;ratioP2;P2;SDS_P1;SDS_P2;PMS_P1;PMS_P2;Temp;Humidity;BMP_temperature;BMP_pressure;BME280_temperature;BME280_humidity;BME280_pressure;Samples;Min_cycle;Max_cycle;Signal;HPM_P1;HPM_P2
2021/11/13 00:02:18;;;;;;;19.40;13.25;;;;;;;;;;5013055;28;20194;-72
2021/11/13 00:04:44;;;;;;;25.73;14.52;;;;;;;;;;5021534;28;20319;-73
2021/11/13 00:07:09;;;;;;;23.23;13.38;;;;;;;;;;5014060;28;20210;-72
2021/11/13 00:09:35;;;;;;;22.63;13.07;;;;;;;;;;5013443;28;20805;-72
2021/11/13 00:12:00;;;;;;;19.52;12.68;;;;;;;;;;5014778;28;20209;-72
2021/11/13 00:14:27;;;;;;;23.08;13.88;;;;;;;;;;5019555;28;20186;-74
2021/11/13 00:16:55;;;;;;;21.42;13.90;;;;;;;;;;5015643;28;20186;-72
2021/11/13 00:19:20;;;;;;;21.77;13.20;;;;;;;;;;5019171;28;20280;-73
2021/11/13 00:21:45;;;;;;;25.48;14.57;;;;;;;;;;5019301;28;20274;-73
2021/11/13 00:24:12;;;;;;;22.63;13.13;;;;;;;;;;5010117;28;20194;-73
2021/11/13 00:26:37;;;;;;;21.20;13.30;;;;;;;;;;5018734;28;20206;-73
2021/11/13 00:29:04;;;;;;;25.10;13.80;;;;;;;;;;5018887;28;20346;-74
2021/11/13 00:31:29;;;;;;;22.88;13.82;;;;;;;;;;5023471;28;20186;-74
2021/11/13 00:33:55;;;;;;;20.25;13.05;;;;;;;;;;5018681;28;20235;-73
2021/11/13 00:36:20;;;;;;;27.20;13.37;;;;;;;;;;5021915;28;20178;-73
2021/11/13 00:38:45;;;;;;;20.47;13.33;;;;;;;;;;5014907;28;20190;-73
2021/11/13 00:41:11;;;;;;;22.13;14.50;;;;;;;;;;5025070;28;20261;-73
2021/11/13 00:43:36;;;;;;;23.63;14.33;;;;;;;;;;5015611;28;20209;-73
2021/11/13 00:46:02;;;;;;;26.20;14.80;;;;;;;;;;5021885;28;20627;-73
2021/11/13 00:48:27;;;;;;;23.33;14.67;;;;;;;;;;5011572;28;20240;-73
2021/11/13 00:50:52;;;;;;;24.13;14.40;;;;;;;;;;5021374;28;20197;-73
2021/11/13 00:53:19;;;;;;;23.57;15.13;;;;;;;;;;5021958;28;20199;-74
2021/11/13 00:55:44;;;;;;;28.13;15.10;;;;;;;;;;5012701;28;20209;-74
2021/11/13 00:58:09;;;;;;;20.50;14.27;;;;;;;;;;5019341;28;20254;-71
2021/11/13 01:00:35;;;;;;;28.33;15.70;;;;;;;;;;5011111;28;20193;-72
2021/11/13 01:03:00;;;;;;;25.93;16.03;;;;;;;;;;5023772;28;20196;-72
2021/11/13 01:05:27;;;;;;;25.13;15.60;;;;;;;;;;5015110;28;20202;-72
2021/11/13 01:07:52;;;;;;;23.30;15.63;;;;;;;;;;5024807;28;20221;-73
2021/11/13 01:10:19;;;;;;;23.27;14.80;;;;;;;;;;5018901;28;20194;-73
2021/11/13 01:12:46;;;;;;;24.40;16.05;;;;;;;;;;5021004;28;20198;-73
2021/11/13 01:15:14;;;;;;;27.30;17.40;;;;;;;;;;5012246;28;20217;-73
2021/11/13 01:17:40;;;;;;;25.88;15.52;;;;;;;;;;5023092;28;20186;-73
2021/11/13 01:20:08;;;;;;;27.00;15.93;;;;;;;;;;5015482;28;20186;-73
2021/11/13 01:22:33;;;;;;;26.25;15.68;;;;;;;;;;5020537;28;20178;-73
2021/11/13 01:24:59;;;;;;;25.47;17.33;;;;;;;;;;5027919;28;20618;-72
2021/11/13 01:27:24;;;;;;;28.10;16.80;;;;;;;;;;5014814;28;20263;-72
2021/11/13 01:29:50;;;;;;;29.73;18.17;;;;;;;;;;5022992;28;20190;-71
2021/11/13 01:32:16;;;;;;;27.43;17.93;;;;;;;;;;5016580;28;20691;-71
2021/11/13 01:34:42;;;;;;;29.53;18.43;;;;;;;;;;5024529;28;20276;-71
2021/11/13 01:37:08;;;;;;;29.67;18.43;;;;;;;;;;5016791;28;20194;-72
2021/11/13 01:39:36;;;;;;;33.00;19.13;;;;;;;;;;5015893;28;20194;-71
2021/11/13 01:42:02;;;;;;;30.13;19.93;;;;;;;;;;5014668;28;20642;-71
2021/11/13 01:44:28;;;;;;;31.40;18.83;;;;;;;;;;5020417;28;20200;-72
2021/11/13 01:46:53;;;;;;;29.43;19.40;;;;;;;;;;5018561;28;20210;-71
2021/11/13 01:49:19;;;;;;;28.67;19.33;;;;;;;;;;5023221;28;20197;-72
2021/11/13 01:51:45;;;;;;;30.20;19.23;;;;;;;;;;5018315;28;20628;-73
2021/11/13 01:54:10;;;;;;;36.00;20.97;;;;;;;;;;5021498;28;20646;-74
2021/11/13 01:56:40;;;;;;;30.33;19.47;;;;;;;;;;5019698;28;20224;-71
2021/11/13 01:59:08;;;;;;;35.40;21.30;;;;;;;;;;5014433;28;20248;-72
2021/11/13 02:01:35;;;;;;;32.60;20.23;;;;;;;;;;5021704;28;20563;-72
2021/11/13 02:04:00;;;;;;;31.07;20.10;;;;;;;;;;5014289;28;20252;-72
2021/11/13 02:06:27;;;;;;;32.17;20.23;;;;;;;;;;5010416;28;20234;-72
2021/11/13 02:08:53;;;;;;;30.73;19.83;;;;;;;;;;5012961;28;20209;-72
2021/11/13 02:11:22;;;;;;;29.97;19.63;;;;;;;;;;5022827;28;20287;-72
2021/11/13 02:13:48;;;;;;;30.43;19.80;;;;;;;;;;5016492;28;20192;-72
2021/11/13 02:16:14;;;;;;;30.90;20.60;;;;;;;;;;5026692;28;20627;-71
2021/11/13 02:18:41;;;;;;;29.03;19.33;;;;;;;;;;5018347;28;20182;-76
2021/11/13 02:21:09;;;;;;;29.43;20.03;;;;;;;;;;5029555;28;20513;-74
2021/11/13 02:23:35;;;;;;;28.13;18.67;;;;;;;;;;5016692;28;20533;-74
2021/11/13 02:26:00;;;;;;;31.67;19.70;;;;;;;;;;5031778;28;20194;-76
2021/11/13 02:28:26;;;;;;;31.33;20.60;;;;;;;;;;5018458;28;20573;-72
2021/11/13 02:30:54;;;;;;;30.07;19.97;;;;;;;;;;5027781;28;20194;-73
2021/11/13 02:33:20;;;;;;;32.30;20.87;;;;;;;;;;5019070;28;20575;-75
2021/11/13 02:35:47;;;;;;;27.43;18.23;;;;;;;;;;5021411;28;20208;-74
2021/11/13 02:38:21;;;;;;;31.50;20.53;;;;;;;;;;5026117;28;20182;-75
2021/11/13 02:40:49;;;;;;;31.27;20.33;;;;;;;;;;5013345;28;20241;-74
2021/11/13 02:43:16;;;;;;;28.70;19.13;;;;;;;;;;5025162;28;20182;-76
2021/11/13 02:45:43;;;;;;;27.17;19.13;;;;;;;;;;5014884;28;20267;-76
2021/11/13 02:48:09;;;;;;;26.73;18.47;;;;;;;;;;5022866;28;20203;-75
2021/11/13 02:50:36;;;;;;;30.37;19.03;;;;;;;;;;5019740;28;20550;-73
2021/11/13 02:53:04;;;;;;;27.30;18.13;;;;;;;;;;5026231;28;20188;-74
2021/11/13 02:55:30;;;;;;;30.70;18.65;;;;;;;;;;5017274;28;20221;-75
2021/11/13 02:57:56;;;;;;;30.83;18.83;;;;;;;;;;5025307;28;20182;-72
2021/11/13 03:00:25;;;;;;;28.80;19.05;;;;;;;;;;5017741;28;20186;-71
2021/11/13 03:02:51;;;;;;;31.20;19.23;;;;;;;;;;5018948;28;20673;-71
2021/11/13 03:05:29;;;;;;;27.90;18.05;;;;;;;;;;5020828;28;20277;-71
2021/11/13 03:07:57;;;;;;;25.75;16.98;;;;;;;;;;5028504;28;20206;-72
2021/11/13 03:10:26;;;;;;;25.60;17.00;;;;;;;;;;5023673;28;20209;-71
2021/11/13 03:12:53;;;;;;;24.83;17.70;;;;;;;;;;5013820;28;20189;-71
2021/11/13 03:15:20;;;;;;;22.83;16.95;;;;;;;;;;5024171;28;20190;-71
2021/11/13 03:17:46;;;;;;;22.13;15.80;;;;;;;;;;5010608;28;20187;-72
2021/11/13 03:20:15;;;;;;;25.33;17.48;;;;;;;;;;5025671;28;20186;-74
2021/11/13 03:22:41;;;;;;;24.92;17.02;;;;;;;;;;5012884;28;20187;-75
2021/11/13 03:25:13;;;;;;;24.50;16.70;;;;;;;;;;5021406;28;20209;-74
2021/11/13 03:27:42;;;;;;;27.15;17.52;;;;;;;;;;5013958;28;20688;-73
2021/11/13 03:30:08;;;;;;;26.80;18.03;;;;;;;;;;5025773;28;20186;-71
2021/11/13 03:32:34;;;;;;;26.35;18.23;;;;;;;;;;5017305;28;20208;-71
2021/11/13 03:35:02;;;;;;;27.33;18.48;;;;;;;;;;5024902;28;20701;-71
2021/11/13 03:37:27;;;;;;;26.93;17.87;;;;;;;;;;5016550;28;20204;-71
2021/11/13 03:39:53;;;;;;;24.90;17.85;;;;;;;;;;5025806;28;20193;-71
2021/11/13 03:42:18;;;;;;;27.63;17.92;;;;;;;;;;5017070;28;20186;-71
2021/11/13 03:44:44;;;;;;;24.20;17.90;;;;;;;;;;5028600;28;20586;-72
2021/11/13 03:47:09;;;;;;;23.77;18.05;;;;;;;;;;5024594;28;20210;-71
2021/11/13 03:49:34;;;;;;;27.25;17.55;;;;;;;;;;5015111;28;20646;-71
2021/11/13 03:52:00;;;;;;;27.23;18.60;;;;;;;;;;5027221;28;20638;-71
2021/11/13 03:54:25;;;;;;;25.52;17.40;;;;;;;;;;5018240;28;20240;-71
2021/11/13 03:56:51;;;;;;;26.55;17.90;;;;;;;;;;5025599;28;20264;-71
2021/11/13 03:59:17;;;;;;;22.63;17.13;;;;;;;;;;5016660;28;20684;-70
2021/11/13 04:01:43;;;;;;;23.23;17.73;;;;;;;;;;5023462;28;20201;-70
2021/11/13 04:04:09;;;;;;;21.90;16.52;;;;;;;;;;5012767;28;20245;-70
2021/11/13 04:06:34;;;;;;;24.80;17.63;;;;;;;;;;5026354;28;20214;-70
2021/11/13 04:08:59;;;;;;;22.95;16.50;;;;;;;;;;5015636;28;20186;-70
2021/11/13 04:11:25;;;;;;;21.77;17.20;;;;;;;;;;5024437;28;20661;-70
2021/11/13 04:13:50;;;;;;;23.45;17.10;;;;;;;;;;5010153;28;20185;-70
2021/11/13 04:16:15;;;;;;;22.85;17.40;;;;;;;;;;5024789;28;20206;-70
2021/11/13 04:18:41;;;;;;;22.92;17.38;;;;;;;;;;5018688;28;20186;-70
2021/11/13 04:21:06;;;;;;;19.80;14.35;;;;;;;;;;5015770;28;20559;-70
2021/11/13 04:23:33;;;;;;;22.17;16.45;;;;;;;;;;5022663;28;20287;-70
2021/11/13 04:25:58;;;;;;;23.80;16.52;;;;;;;;;;5014009;28;20243;-71
2021/11/13 04:28:24;;;;;;;22.42;16.60;;;;;;;;;;5025169;28;20649;-71
2021/11/13 04:30:49;;;;;;;23.13;17.05;;;;;;;;;;5009823;28;20277;-71
2021/11/13 04:33:15;;;;;;;22.13;16.90;;;;;;;;;;5027225;28;20190;-71
2021/11/13 04:35:59;;;;;;;22.27;16.58;;;;;;;;;;5018729;28;20262;-71
2021/11/13 04:38:25;;;;;;;25.42;16.90;;;;;;;;;;5023959;28;20181;-71
2021/11/13 04:40:50;;;;;;;24.67;17.80;;;;;;;;;;5014353;28;20201;-71
2021/11/13 04:43:15;;;;;;;23.92;17.85;;;;;;;;;;5023139;28;20224;-70
2021/11/13 04:45:41;;;;;;;23.85;17.00;;;;;;;;;;5016916;28;20197;-71
2021/11/13 04:48:06;;;;;;;26.63;17.93;;;;;;;;;;5019289;28;20221;-71
2021/11/13 04:50:33;;;;;;;22.87;17.40;;;;;;;;;;5016403;28;20191;-73
2021/11/13 04:52:59;;;;;;;21.47;16.07;;;;;;;;;;5012769;28;20585;-73
2021/11/13 04:55:24;;;;;;;21.05;16.23;;;;;;;;;;5015397;28;20352;-73
2021/11/13 04:57:49;;;;;;;20.55;16.10;;;;;;;;;;5011577;28;20300;-75
2021/11/13 05:00:17;;;;;;;20.33;15.52;;;;;;;;;;5024539;28;20638;-74
2021/11/13 05:02:43;;;;;;;23.85;15.40;;;;;;;;;;5015285;28;20285;-72
2021/11/13 05:05:08;;;;;;;21.55;16.83;;;;;;;;;;5016080;28;20321;-72
2021/11/13 05:07:34;;;;;;;25.50;17.70;;;;;;;;;;5013767;28;20559;-72
2021/11/13 05:09:59;;;;;;;21.73;16.30;;;;;;;;;;5021246;28;20194;-73
2021/11/13 05:12:25;;;;;;;21.20;16.02;;;;;;;;;;5016343;28;20217;-73
2021/11/13 05:14:50;;;;;;;22.25;16.50;;;;;;;;;;5017334;28;20336;-73
2021/11/13 05:17:16;;;;;;;22.38;16.50;;;;;;;;;;5016164;28;20182;-74
2021/11/13 05:19:41;;;;;;;22.55;16.55;;;;;;;;;;5024083;28;20239;-75
2021/11/13 05:22:07;;;;;;;21.35;17.23;;;;;;;;;;5025081;28;20289;-76
2021/11/13 05:24:35;;;;;;;23.52;16.85;;;;;;;;;;5016849;28;20187;-76
2021/11/13 05:27:00;;;;;;;20.23;16.13;;;;;;;;;;5023419;28;20213;-73
2021/11/13 05:29:26;;;;;;;26.02;18.20;;;;;;;;;;5017831;28;20198;-73
2021/11/13 05:31:51;;;;;;;22.92;17.95;;;;;;;;;;5017284;28;20201;-73
2021/11/13 05:34:16;;;;;;;24.80;18.35;;;;;;;;;;5016516;28;20221;-73
2021/11/13 05:36:42;;;;;;;24.30;16.83;;;;;;;;;;5022213;28;20182;-74
2021/11/13 05:39:08;;;;;;;23.80;18.65;;;;;;;;;;5014222;28;20214;-73
2021/11/13 05:41:34;;;;;;;25.53;19.20;;;;;;;;;;5017780;28;20186;-74
2021/11/13 05:44:01;;;;;;;26.73;19.17;;;;;;;;;;5013665;28;20284;-73
2021/11/13 05:46:26;;;;;;;27.92;19.33;;;;;;;;;;5026130;28;20660;-74
2021/11/13 05:48:52;;;;;;;26.83;19.27;;;;;;;;;;5020291;28;21436;-73
2021/11/13 05:51:17;;;;;;;26.80;19.17;;;;;;;;;;5021352;28;20186;-74
2021/11/13 05:53:43;;;;;;;26.23;19.60;;;;;;;;;;5023702;28;20277;-74
2021/11/13 05:56:08;;;;;;;29.43;21.17;;;;;;;;;;5021356;28;20236;-73
2021/11/13 05:58:34;;;;;;;27.25;20.33;;;;;;;;;;5029067;28;20197;-76
2021/11/13 06:00:59;;;;;;;27.95;19.73;;;;;;;;;;5018601;28;20194;-75
2021/11/13 06:03:25;;;;;;;27.33;19.58;;;;;;;;;;5023848;28;20233;-73
2021/11/13 06:05:50;;;;;;;25.48;18.42;;;;;;;;;;5022348;28;20587;-71
2021/11/13 06:08:15;;;;;;;28.55;20.58;;;;;;;;;;5022197;28;20802;-72
2021/11/13 06:10:41;;;;;;;29.45;20.67;;;;;;;;;;5019790;28;20225;-72
2021/11/13 06:13:06;;;;;;;30.77;20.58;;;;;;;;;;5024361;28;20292;-72
2021/11/13 06:15:32;;;;;;;28.10;20.37;;;;;;;;;;5020030;28;20191;-72
2021/11/13 06:17:57;;;;;;;30.40;21.47;;;;;;;;;;5027469;28;20524;-71
2021/11/13 06:20:23;;;;;;;31.27;21.43;;;;;;;;;;5021532;28;20537;-71
2021/11/13 06:22:48;;;;;;;27.43;20.33;;;;;;;;;;5026129;28;20202;-71
2021/11/13 06:25:14;;;;;;;28.97;21.27;;;;;;;;;;5021899;28;20190;-71
2021/11/13 06:27:40;;;;;;;33.23;22.07;;;;;;;;;;5011860;28;20207;-71
2021/11/13 06:30:07;;;;;;;29.10;21.08;;;;;;;;;;5020054;28;20280;-70
2021/11/13 06:32:33;;;;;;;35.17;23.80;;;;;;;;;;4323491;28;10021611;-70
2021/11/13 06:34:59;;;;;;;32.10;22.93;;;;;;;;;;5027768;28;20292;-70
2021/11/13 06:37:26;;;;;;;33.88;22.25;;;;;;;;;;5012281;28;20270;-70
2021/11/13 06:39:51;;;;;;;33.67;22.47;;;;;;;;;;5019304;28;20201;-70
2021/11/13 06:42:17;;;;;;;37.63;23.83;;;;;;;;;;5010296;28;20190;-70
2021/11/13 06:44:42;;;;;;;37.30;24.07;;;;;;;;;;5019944;28;20277;-70
2021/11/13 06:47:07;;;;;;;40.93;25.53;;;;;;;;;;5012638;28;20293;-70
2021/11/13 06:49:33;;;;;;;40.07;24.47;;;;;;;;;;5019123;28;20268;-70
2021/11/13 06:51:58;;;;;;;38.37;24.07;;;;;;;;;;5013771;28;20193;-70
2021/11/13 06:54:24;;;;;;;42.45;26.95;;;;;;;;;;5018798;28;20198;-70
2021/11/13 06:56:49;;;;;;;40.97;25.70;;;;;;;;;;5021385;28;20206;-70
2021/11/13 06:59:15;;;;;;;40.03;25.15;;;;;;;;;;5007290;28;20198;-70
2021/11/13 07:01:41;;;;;;;40.35;25.63;;;;;;;;;;5016827;28;20658;-70
2021/11/13 07:04:06;;;;;;;43.30;25.97;;;;;;;;;;5011840;28;20230;-70
2021/11/13 07:06:31;;;;;;;39.77;26.30;;;;;;;;;;5020061;28;20348;-70
2021/11/13 07:08:57;;;;;;;41.13;26.70;;;;;;;;;;5011507;28;20229;-70
2021/11/13 07:11:22;;;;;;;43.33;26.77;;;;;;;;;;5020206;28;20198;-70
2021/11/13 07:13:48;;;;;;;46.67;27.67;;;;;;;;;;5011108;28;20677;-70
2021/11/13 07:16:13;;;;;;;42.80;27.03;;;;;;;;;;5013279;28;20183;-70
2021/11/13 07:18:39;;;;;;;39.10;24.00;;;;;;;;;;5012674;28;20217;-70
2021/11/13 07:21:07;;;;;;;42.77;26.33;;;;;;;;;;5019435;28;20186;-70
2021/11/13 07:23:34;;;;;;;43.15;25.92;;;;;;;;;;5014882;28;20190;-71
2021/11/13 07:26:02;;;;;;;42.47;26.97;;;;;;;;;;5022083;28;20194;-70
2021/11/13 07:29:03;;;;;;;42.97;26.87;;;;;;;;;;5020440;28;20214;-71
2021/11/13 07:31:19;;;;;;;37.50;24.05;;;;;;;;;;5019969;28;20197;-70
2021/11/13 07:33:49;;;;;;;37.30;24.48;;;;;;;;;;5018580;28;20194;-70
2021/11/13 07:36:14;;;;;;;38.28;23.00;;;;;;;;;;5010515;28;20199;-71
2021/11/13 07:38:40;;;;;;;38.45;24.67;;;;;;;;;;5018995;28;20268;-70
2021/11/13 07:41:07;;;;;;;35.88;23.23;;;;;;;;;;5006945;28;20191;-70
2021/11/13 07:43:32;;;;;;;43.47;25.80;;;;;;;;;;5017161;28;20198;-71
2021/11/13 07:45:58;;;;;;;37.50;24.40;;;;;;;;;;5011433;28;20204;-71
2021/11/13 07:48:24;;;;;;;30.08;20.42;;;;;;;;;;5018590;28;20229;-71
2021/11/13 07:50:49;;;;;;;35.22;23.25;;;;;;;;;;5006704;28;20533;-70
2021/11/13 07:53:14;;;;;;;32.78;22.50;;;;;;;;;;5024514;28;20532;-71
2021/11/13 07:55:40;;;;;;;35.38;24.15;;;;;;;;;;5013721;28;20616;-70
2021/11/13 07:58:07;;;;;;;34.40;22.17;;;;;;;;;;5018213;28;20197;-71
2021/11/13 08:00:34;;;;;;;34.10;22.88;;;;;;;;;;5008664;28;20215;-71
2021/11/13 08:02:59;;;;;;;31.77;22.02;;;;;;;;;;5022351;28;20186;-71
2021/11/13 08:05:25;;;;;;;29.83;18.98;;;;;;;;;;5021399;28;20194;-70
2021/11/13 08:07:50;;;;;;;28.63;19.95;;;;;;;;;;5008840;28;20214;-71
2021/11/13 08:10:17;;;;;;;28.55;21.23;;;;;;;;;;5016606;28;20249;-70
2021/11/13 08:12:43;;;;;;;27.50;19.75;;;;;;;;;;5015438;28;20533;-70
2021/11/13 08:15:10;;;;;;;31.90;21.77;;;;;;;;;;5025205;28;20186;-70
2021/11/13 08:17:36;;;;;;;31.27;22.05;;;;;;;;;;5012901;28;20193;-71
2021/11/13 08:20:05;;;;;;;34.13;21.38;;;;;;;;;;5021931;28;20186;-71
2021/11/13 08:22:31;;;;;;;27.50;19.00;;;;;;;;;;5008125;28;20195;-70
2021/11/13 08:24:56;;;;;;;28.92;20.15;;;;;;;;;;5016087;28;20201;-71
2021/11/13 08:27:21;;;;;;;28.60;20.45;;;;;;;;;;5008687;28;20260;-70
2021/11/13 08:29:47;;;;;;;31.75;21.45;;;;;;;;;;5022034;28;20549;-72
2021/11/13 08:32:12;;;;;;;30.75;20.85;;;;;;;;;;5011853;28;20182;-70
2021/11/13 08:34:38;;;;;;;27.48;19.75;;;;;;;;;;5019087;28;20197;-72
2021/11/13 08:37:04;;;;;;;25.75;19.23;;;;;;;;;;5016770;28;20173;-73
2021/11/13 08:39:34;;;;;;;25.67;19.88;;;;;;;;;;5012654;28;20202;-72
2021/11/13 08:42:09;;;;;;;28.40;19.63;;;;;;;;;;5017545;28;20630;-72
2021/11/13 08:44:35;;;;;;;28.77;19.48;;;;;;;;;;5012021;28;20182;-71
2021/11/13 08:47:03;;;;;;;28.38;20.40;;;;;;;;;;5014620;28;20567;-72
2021/11/13 08:49:29;;;;;;;33.60;21.27;;;;;;;;;;5010614;28;20241;-71
2021/11/13 08:51:54;;;;;;;31.70;20.65;;;;;;;;;;5022237;28;20662;-72
2021/11/13 08:54:19;;;;;;;27.30;19.52;;;;;;;;;;5010095;28;20183;-72
2021/11/13 08:56:45;;;;;;;32.30;20.55;;;;;;;;;;5020425;28;20896;-71
2021/11/13 08:59:10;;;;;;;29.60;19.90;;;;;;;;;;5009568;28;20191;-72
2021/11/13 09:01:36;;;;;;;26.90;19.17;;;;;;;;;;5017370;28;20231;-72
2021/11/13 09:04:02;;;;;;;26.55;17.95;;;;;;;;;;5008614;28;20273;-72
2021/11/13 09:06:31;;;;;;;30.17;20.52;;;;;;;;;;5020599;28;20650;-72
2021/11/13 09:08:59;;;;;;;26.58;18.58;;;;;;;;;;5009926;28;20630;-72
2021/11/13 09:11:27;;;;;;;27.95;19.45;;;;;;;;;;5019607;28;20186;-72
2021/11/13 09:13:54;;;;;;;24.55;17.63;;;;;;;;;;5012537;28;20657;-72
2021/11/13 09:16:20;;;;;;;28.25;18.63;;;;;;;;;;5007689;28;20221;-72
2021/11/13 09:18:45;;;;;;;25.52;18.92;;;;;;;;;;5014523;28;20210;-72
2021/11/13 09:21:12;;;;;;;24.92;18.58;;;;;;;;;;5010328;28;20190;-72
2021/11/13 09:23:38;;;;;;;26.30;18.35;;;;;;;;;;5020595;28;20190;-72
2021/11/13 09:26:06;;;;;;;28.95;18.48;;;;;;;;;;5011809;28;20182;-72
2021/11/13 09:28:32;;;;;;;25.05;17.98;;;;;;;;;;5013737;28;20221;-72
2021/11/13 09:31:00;;;;;;;27.15;18.13;;;;;;;;;;5012595;28;20606;-71
2021/11/13 09:33:27;;;;;;;25.42;18.35;;;;;;;;;;5010548;28;20185;-71
2021/11/13 09:35:53;;;;;;;24.77;17.38;;;;;;;;;;5008145;28;20207;-72
2021/11/13 09:38:21;;;;;;;24.70;17.45;;;;;;;;;;5018749;28;20190;-72
2021/11/13 09:40:47;;;;;;;22.80;15.80;;;;;;;;;;5013010;28;20297;-72
2021/11/13 09:43:13;;;;;;;22.42;16.95;;;;;;;;;;5016345;28;20247;-72
2021/11/13 09:45:38;;;;;;;24.75;16.55;;;;;;;;;;5010627;28;20195;-72
2021/11/13 09:48:05;;;;;;;21.95;16.10;;;;;;;;;;5017851;28;20238;-72
2021/11/13 09:50:35;;;;;;;22.88;15.18;;;;;;;;;;5019687;28;20595;-72
2021/11/13 09:53:01;;;;;;;21.17;16.17;;;;;;;;;;5013762;28;20282;-72
2021/11/13 09:55:27;;;;;;;21.20;16.00;;;;;;;;;;5011817;28;20306;-72
2021/11/13 09:57:53;;;;;;;22.63;16.60;;;;;;;;;;5009941;28;20682;-72
2021/11/13 10:00:22;;;;;;;22.58;14.75;;;;;;;;;;5025102;28;20671;-72
2021/11/13 10:02:48;;;;;;;24.15;16.02;;;;;;;;;;5012070;28;20197;-72
2021/11/13 10:05:14;;;;;;;21.40;15.98;;;;;;;;;;5013452;28;20182;-72
2021/11/13 10:07:41;;;;;;;20.92;15.88;;;;;;;;;;5005461;28;20217;-72
2021/11/13 10:10:08;;;;;;;20.17;15.55;;;;;;;;;;5024894;28;20197;-72
2021/11/13 10:12:43;;;;;;;21.42;15.57;;;;;;;;;;5012992;28;20189;-72
2021/11/13 10:15:30;;;;;;;21.52;15.75;;;;;;;;;;5017865;28;20183;-72
2021/11/13 10:18:06;;;;;;;22.27;16.30;;;;;;;;;;5011282;28;20229;-72
2021/11/13 10:20:32;;;;;;;22.13;16.02;;;;;;;;;;5020004;28;20182;-72
2021/11/13 10:22:57;;;;;;;21.55;16.55;;;;;;;;;;5013232;28;20202;-72
2021/11/13 10:25:23;;;;;;;19.77;15.77;;;;;;;;;;5018094;28;20217;-72
2021/11/13 10:28:07;;;;;;;19.75;15.45;;;;;;;;;;5011042;28;20206;-72
2021/11/13 10:30:32;;;;;;;21.05;15.50;;;;;;;;;;5019234;28;20209;-72
2021/11/13 10:32:58;;;;;;;23.63;16.15;;;;;;;;;;5018972;28;20257;-72
2021/11/13 10:35:49;;;;;;;24.30;15.90;;;;;;;;;;5020520;28;20201;-71
2021/11/13 10:38:20;;;;;;;22.58;15.27;;;;;;;;;;5017855;28;20305;-71
2021/11/13 10:40:59;;;;;;;22.40;15.77;;;;;;;;;;5025445;28;20557;-71
2021/11/13 10:43:51;;;;;;;24.08;15.18;;;;;;;;;;5023379;28;20590;-71
2021/11/13 10:46:21;;;;;;;22.58;15.23;;;;;;;;;;5022643;28;20264;-71
2021/11/13 10:48:52;;;;;;;20.88;15.32;;;;;;;;;;5014483;28;20209;-71
2021/11/13 10:51:22;;;;;;;19.08;15.13;;;;;;;;;;5027555;28;20214;-71
2021/11/13 10:53:49;;;;;;;20.23;15.43;;;;;;;;;;5027496;28;20191;-71
2021/11/13 10:56:26;;;;;;;19.02;15.05;;;;;;;;;;5019259;28;20221;-72
2021/11/13 10:58:57;;;;;;;19.50;14.70;;;;;;;;;;5017834;28;20182;-71
2021/11/13 11:01:23;;;;;;;17.42;13.63;;;;;;;;;;5018934;28;20190;-72
2021/11/13 11:03:53;;;;;;;19.20;13.82;;;;;;;;;;5021075;28;20240;-71
2021/11/13 11:06:31;;;;;;;17.75;13.90;;;;;;;;;;5014604;28;20642;-71
2021/11/13 11:08:58;;;;;;;18.60;14.95;;;;;;;;;;5019985;28;20194;-72
2021/11/13 11:11:33;;;;;;;20.42;15.07;;;;;;;;;;5015101;28;20214;-72
2021/11/13 11:14:01;;;;;;;20.30;14.57;;;;;;;;;;5022575;28;20187;-72
2021/11/13 11:16:33;;;;;;;20.27;15.35;;;;;;;;;;5011444;28;20678;-71
2021/11/13 11:19:05;;;;;;;21.67;15.52;;;;;;;;;;5021552;28;20216;-72
2021/11/13 11:21:37;;;;;;;22.65;15.93;;;;;;;;;;5006202;28;20190;-71
2021/11/13 11:24:23;;;;;;;19.45;14.40;;;;;;;;;;5023760;28;20273;-71
2021/11/13 11:26:56;;;;;;;23.00;16.02;;;;;;;;;;5011620;28;20218;-71
2021/11/13 11:29:22;;;;;;;22.15;15.63;;;;;;;;;;5017538;28;20182;-72
2021/11/13 11:32:00;;;;;;;20.23;16.23;;;;;;;;;;5009418;28;20191;-72
2021/11/13 11:34:27;;;;;;;24.73;16.60;;;;;;;;;;5023993;28;20674;-72
2021/11/13 11:36:55;;;;;;;26.30;17.08;;;;;;;;;;5010421;28;20175;-71
2021/11/13 11:39:21;;;;;;;21.63;16.73;;;;;;;;;;5022561;28;20209;-71
2021/11/13 11:41:47;;;;;;;22.75;16.95;;;;;;;;;;5012470;28;20190;-72
2021/11/13 11:44:15;;;;;;;23.88;16.38;;;;;;;;;;5018504;28;20186;-71
2021/11/13 11:46:41;;;;;;;25.60;18.10;;;;;;;;;;5016175;28;20217;-71
2021/11/13 11:49:07;;;;;;;25.02;17.65;;;;;;;;;;5019020;28;20190;-71
2021/11/13 11:51:33;;;;;;;29.17;18.65;;;;;;;;;;5023012;28;20244;-71
2021/11/13 11:54:00;;;;;;;27.60;19.30;;;;;;;;;;5009269;28;20613;-71
2021/11/13 11:56:27;;;;;;;24.95;17.08;;;;;;;;;;5022526;28;20206;-72
2021/11/13 11:58:54;;;;;;;27.73;18.40;;;;;;;;;;5006779;28;20626;-71
2021/11/13 12:01:28;;;;;;;25.05;16.48;;;;;;;;;;5021405;28;20185;-71
2021/11/13 12:04:14;;;;;;;26.02;17.00;;;;;;;;;;5015345;28;20279;-71
2021/11/13 12:06:53;;;;;;;23.10;16.25;;;;;;;;;;5020742;28;20676;-71
2021/11/13 12:09:20;;;;;;;24.27;16.83;;;;;;;;;;5008867;28;20190;-72
2021/11/13 12:11:48;;;;;;;23.55;16.23;;;;;;;;;;5022159;28;20238;-72
2021/11/13 12:14:33;;;;;;;20.45;14.32;;;;;;;;;;5011393;28;20198;-72
2021/11/13 12:17:35;;;;;;;22.85;15.85;;;;;;;;;;5022820;28;20190;-72
2021/11/13 12:20:04;;;;;;;25.60;16.13;;;;;;;;;;4319633;28;10001529;-71
2021/11/13 12:22:37;;;;;;;24.13;15.77;;;;;;;;;;5018449;28;20690;-71
2021/11/13 12:25:26;;;;;;;23.67;14.95;;;;;;;;;;5018369;28;20190;-72
2021/11/13 12:28:12;;;;;;;22.65;15.00;;;;;;;;;;5020525;28;20352;-71
2021/11/13 12:30:52;;;;;;;22.17;15.65;;;;;;;;;;5008612;28;21323;-72
2021/11/13 12:33:26;;;;;;;21.88;16.20;;;;;;;;;;5026694;28;20190;-72
2021/11/13 12:36:18;;;;;;;24.35;16.33;;;;;;;;;;5016737;28;20281;-72
2021/11/13 12:38:45;;;;;;;25.10;16.90;;;;;;;;;;4678743;28;9999983;-72
2021/11/13 12:41:26;;;;;;;24.33;17.23;;;;;;;;;;5011853;28;20216;-72
2021/11/13 12:43:51;;;;;;;25.23;16.95;;;;;;;;;;5020174;28;20619;-72
2021/11/13 12:46:38;;;;;;;22.95;17.08;;;;;;;;;;5012339;28;20217;-72
2021/11/13 12:49:16;;;;;;;25.70;17.10;;;;;;;;;;5020310;28;20290;-71
2021/11/13 12:52:05;;;;;;;23.42;16.60;;;;;;;;;;5013150;28;20213;-72
2021/11/13 12:54:45;;;;;;;23.95;17.20;;;;;;;;;;5016585;28;20197;-72
2021/11/13 12:57:14;;;;;;;24.58;16.80;;;;;;;;;;5011761;28;20537;-72
2021/11/13 12:59:58;;;;;;;21.88;16.58;;;;;;;;;;5021389;28;20603;-72
2021/11/13 13:02:24;;;;;;;24.73;16.77;;;;;;;;;;5009322;28;20633;-71
2021/11/13 13:04:50;;;;;;;27.13;16.73;;;;;;;;;;5019418;28;20254;-71
2021/11/13 13:07:17;;;;;;;23.60;17.02;;;;;;;;;;5010592;28;20217;-72
2021/11/13 13:10:01;;;;;;;25.73;16.65;;;;;;;;;;5017711;28;20541;-72
2021/11/13 13:12:32;;;;;;;24.67;17.27;;;;;;;;;;5006743;28;20252;-72
2021/11/13 13:15:00;;;;;;;21.63;16.25;;;;;;;;;;5015342;28;20190;-72
2021/11/13 13:17:32;;;;;;;21.23;15.85;;;;;;;;;;5004865;28;20672;-72
2021/11/13 13:19:58;;;;;;;24.33;16.70;;;;;;;;;;5021030;28;20186;-72
2021/11/13 13:22:24;;;;;;;23.73;16.27;;;;;;;;;;5003740;28;20194;-71
2021/11/13 13:24:59;;;;;;;23.75;16.90;;;;;;;;;;5011465;28;20626;-72
2021/11/13 13:27:24;;;;;;;25.23;17.45;;;;;;;;;;5008023;28;20210;-71
2021/11/13 13:30:03;;;;;;;25.77;17.17;;;;;;;;;;5016385;28;20271;-71
2021/11/13 13:32:28;;;;;;;21.95;16.45;;;;;;;;;;5006871;28;20185;-72
2021/11/13 13:34:58;;;;;;;23.98;16.65;;;;;;;;;;5016976;28;20580;-72
2021/11/13 13:37:28;;;;;;;26.45;17.30;;;;;;;;;;5007014;28;20285;-72
2021/11/13 13:39:59;;;;;;;24.80;16.85;;;;;;;;;;5016330;28;20186;-72
2021/11/13 13:42:36;;;;;;;24.95;17.13;;;;;;;;;;5015959;28;20596;-72
2021/11/13 13:45:02;;;;;;;27.27;17.85;;;;;;;;;;5013871;28;20324;-71
2021/11/13 13:47:28;;;;;;;25.45;17.15;;;;;;;;;;5019743;28;20210;-72
2021/11/13 13:50:00;;;;;;;25.15;16.55;;;;;;;;;;5010342;28;20243;-72
2021/11/13 13:52:41;;;;;;;25.08;16.73;;;;;;;;;;5014156;28;20189;-72
2021/11/13 13:55:13;;;;;;;22.23;16.27;;;;;;;;;;5008189;28;20193;-72
2021/11/13 13:57:39;;;;;;;23.27;15.90;;;;;;;;;;5010367;28;20515;-72
2021/11/13 14:00:10;;;;;;;26.13;17.35;;;;;;;;;;5004737;28;20209;-72
2021/11/13 14:02:40;;;;;;;25.05;17.00;;;;;;;;;;5009835;28;20633;-72
2021/11/13 14:05:06;;;;;;;23.23;17.05;;;;;;;;;;5011559;28;20237;-72
2021/11/13 14:07:32;;;;;;;23.33;16.58;;;;;;;;;;5021515;28;20635;-72
2021/11/13 14:09:57;;;;;;;24.15;16.33;;;;;;;;;;5011280;28;20190;-72
2021/11/13 14:12:51;;;;;;;25.83;17.40;;;;;;;;;;5016978;28;20198;-71
2021/11/13 14:15:19;;;;;;;22.42;16.90;;;;;;;;;;5005144;28;20251;-72
2021/11/13 14:17:47;;;;;;;22.05;17.20;;;;;;;;;;5014131;28;20651;-72
2021/11/13 14:20:16;;;;;;;23.70;16.42;;;;;;;;;;5007245;28;20312;-72
2021/11/13 14:22:54;;;;;;;22.80;17.05;;;;;;;;;;5011378;28;20582;-72